createdAt,value
2018-03-27T00:00:40.914Z,37.03
2018-03-27T00:03:08.594Z,37.63
2018-03-27T00:05:36.633Z,35.53
2018-03-27T00:08:04.313Z,35.77
2018-03-27T00:10:31.938Z,35.33
2018-03-27T00:12:59.687Z,37.33
2018-03-27T00:15:27.359Z,34.83
2018-03-27T00:17:57.234Z,36.47
2018-03-27T00:20:25.360Z,36.93
2018-03-27T00:22:53.096Z,35.73
2018-03-27T00:25:20.724Z,35.07
2018-03-27T00:28:00.144Z,35.77
2018-03-27T00:30:39.448Z,36.53
2018-03-27T00:33:18.862Z,35.07
2018-03-27T00:35:58.842Z,34.73
2018-03-27T00:38:39.237Z,33.70
2018-03-27T00:44:28.047Z,35.23
2018-03-27T00:46:55.751Z,35.30
2018-03-27T00:49:23.378Z,35.57
2018-03-27T00:51:53.246Z,37.17
2018-03-27T00:54:20.962Z,36.60
2018-03-27T00:56:48.581Z,35.23
2018-03-27T00:59:16.991Z,37.90
2018-03-27T01:01:44.603Z,36.40
2018-03-27T01:04:12.314Z,40.20
2018-03-27T01:06:40.016Z,38.10
2018-03-27T01:09:08.981Z,37.77
2018-03-27T01:11:37.828Z,36.73
2018-03-27T01:14:06.244Z,37.70
2018-03-27T01:16:35.300Z,38.73
2018-03-27T01:19:02.918Z,39.20
2018-03-27T01:21:31.691Z,38.83
2018-03-27T01:23:59.336Z,37.10
2018-03-27T01:26:27.019Z,39.10
2018-03-27T01:28:55.432Z,38.77
2018-03-27T01:31:23.044Z,40.33
2018-03-27T01:33:50.677Z,40.13
2018-03-27T01:36:18.738Z,39.57
2018-03-27T01:38:46.392Z,39.93
2018-03-27T01:41:14.020Z,41.43
2018-03-27T01:43:42.440Z,40.17
2018-03-27T01:46:10.233Z,40.43
2018-03-27T01:48:37.866Z,39.17
2018-03-27T01:51:05.472Z,41.60
2018-03-27T01:53:33.409Z,39.80
2018-03-27T01:56:01.161Z,42.20
2018-03-27T01:58:28.822Z,43.27
2018-03-27T02:00:57.202Z,40.73
2018-03-27T02:03:24.856Z,41.30
2018-03-27T02:05:52.488Z,41.00
2018-03-27T02:08:20.188Z,40.90
2018-03-27T02:10:47.377Z,42.80
2018-03-27T02:13:20.743Z,41.70
2018-03-27T02:15:53.997Z,41.27
2018-03-27T02:18:27.925Z,43.07
2018-03-27T02:21:01.461Z,41.33
2018-03-27T02:23:29.835Z,43.67
2018-03-27T02:25:57.516Z,43.03
2018-03-27T02:28:25.941Z,44.97
2018-03-27T02:30:53.543Z,46.17
2018-03-27T02:33:21.282Z,44.07
2018-03-27T02:35:48.901Z,46.33
2018-03-27T02:38:16.571Z,45.70
2018-03-27T02:40:44.270Z,46.93
2018-03-27T02:43:13.068Z,48.00
2018-03-27T02:45:40.749Z,48.07
2018-03-27T02:48:08.415Z,47.33
2018-03-27T02:50:36.792Z,47.07
2018-03-27T02:53:05.313Z,46.40
2018-03-27T02:55:33.043Z,48.57
2018-03-27T02:58:01.476Z,49.67
2018-03-27T03:00:29.137Z,50.17
2018-03-27T03:02:56.783Z,50.07
2018-03-27T03:05:24.439Z,48.60
2018-03-27T03:07:52.111Z,49.23
2018-03-27T03:10:20.361Z,50.23
2018-03-27T03:12:50.199Z,52.03
2018-03-27T03:15:17.803Z,49.50
2018-03-27T03:17:45.445Z,48.93
2018-03-27T03:20:13.045Z,52.10
2018-03-27T03:22:40.737Z,51.07
2018-03-27T03:25:08.450Z,50.13
2018-03-27T03:27:36.093Z,51.83
2018-03-27T03:30:03.757Z,53.03
2018-03-27T03:32:31.375Z,52.17
2018-03-27T03:34:59.007Z,52.77
2018-03-27T03:37:26.639Z,52.77
2018-03-27T03:39:54.274Z,49.77
2018-03-27T03:42:22.345Z,51.90
2018-03-27T03:44:49.967Z,50.53
2018-03-27T03:47:18.352Z,53.33
2018-03-27T03:49:45.961Z,53.77
2018-03-27T03:52:13.573Z,51.53
2018-03-27T03:54:41.224Z,53.57
2018-03-27T03:57:09.597Z,52.40
2018-03-27T03:59:37.235Z,50.13
2018-03-27T04:02:04.934Z,52.27
2018-03-27T04:04:33.407Z,52.97
2018-03-27T04:07:01.859Z,52.90
2018-03-27T04:09:29.478Z,53.07
2018-03-27T04:11:58.675Z,54.53
2018-03-27T04:14:26.305Z,53.60
2018-03-27T04:16:54.871Z,54.03
2018-03-27T04:19:22.554Z,54.73
2018-03-27T04:21:50.936Z,56.23
2018-03-27T04:24:19.413Z,55.57
2018-03-27T04:26:47.837Z,53.20
2018-03-27T04:29:16.171Z,55.00
2018-03-27T04:31:44.567Z,52.80
2018-03-27T04:34:12.344Z,56.17
2018-03-27T04:36:40.082Z,54.73
2018-03-27T04:39:07.772Z,54.33
2018-03-27T04:41:35.507Z,52.07
2018-03-27T04:44:03.125Z,52.50
2018-03-27T04:46:30.760Z,50.90
2018-03-27T04:48:58.385Z,53.50
2018-03-27T04:51:26.773Z,52.33
2018-03-27T04:53:54.386Z,54.03
2018-03-27T04:56:22.003Z,52.13
2018-03-27T04:58:49.689Z,51.70
2018-03-27T05:01:17.385Z,50.50
2018-03-27T05:03:45.803Z,53.00
2018-03-27T05:06:13.677Z,53.50
2018-03-27T05:08:43.145Z,53.70
2018-03-27T05:11:11.547Z,50.57
2018-03-27T05:13:39.591Z,50.20
2018-03-27T05:16:09.277Z,51.93
2018-03-27T05:18:36.897Z,52.57
2018-03-27T05:21:04.574Z,51.77
2018-03-27T05:23:32.218Z,54.37
2018-03-27T05:25:59.985Z,52.20
2018-03-27T05:28:27.639Z,55.03
2018-03-27T05:30:55.431Z,52.80
2018-03-27T05:33:24.693Z,51.90
2018-03-27T05:35:52.321Z,51.57
2018-03-27T05:38:20.071Z,52.30
2018-03-27T05:40:47.774Z,48.97
2018-03-27T05:43:16.175Z,49.97
2018-03-27T05:45:43.859Z,51.50
2018-03-27T05:48:11.512Z,48.17
2018-03-27T05:50:39.163Z,49.67
2018-03-27T05:53:06.812Z,47.23
2018-03-27T05:55:34.503Z,49.13
2018-03-27T05:58:02.197Z,50.20
2018-03-27T06:00:29.890Z,52.63
2018-03-27T06:02:57.571Z,50.93
2018-03-27T06:05:25.273Z,51.47
2018-03-27T06:07:53.447Z,52.20
2018-03-27T06:10:21.108Z,52.33
2018-03-27T06:12:48.731Z,46.50
2018-03-27T06:15:16.361Z,47.37
2018-03-27T06:17:44.783Z,48.47
2018-03-27T06:20:12.414Z,47.97
2018-03-27T06:22:40.151Z,49.87
2018-03-27T06:25:08.547Z,46.07
2018-03-27T06:27:37.325Z,43.77
2018-03-27T06:30:05.785Z,43.57
2018-03-27T06:32:34.213Z,46.10
2018-03-27T06:35:01.933Z,44.03
2018-03-27T06:37:29.577Z,42.77
2018-03-27T06:39:57.228Z,43.17
2018-03-27T06:42:24.843Z,45.40
2018-03-27T06:44:52.531Z,45.30
2018-03-27T06:47:20.210Z,44.17
2018-03-27T06:49:47.945Z,44.07
2018-03-27T06:52:15.836Z,44.00
2018-03-27T06:54:43.516Z,42.57
2018-03-27T06:57:11.225Z,45.67
2018-03-27T06:59:38.920Z,45.87
2018-03-27T07:02:07.209Z,45.40
2018-03-27T07:04:34.852Z,43.87
2018-03-27T07:07:02.539Z,45.60
2018-03-27T07:09:30.186Z,43.73
2018-03-27T07:11:57.842Z,41.93
2018-03-27T07:14:25.531Z,43.30
2018-03-27T07:16:53.211Z,41.97
2018-03-27T07:19:21.691Z,41.53
2018-03-27T07:21:50.155Z,42.87
2018-03-27T07:24:17.912Z,43.50
2018-03-27T07:26:45.523Z,42.80
2018-03-27T07:29:13.192Z,43.67
2018-03-27T07:31:40.822Z,43.47
2018-03-27T07:34:09.280Z,44.83
2018-03-27T07:36:36.998Z,45.57
2018-03-27T07:39:04.698Z,44.90
2018-03-27T07:41:32.319Z,42.97
2018-03-27T07:43:59.941Z,42.90
2018-03-27T07:46:27.608Z,45.93
2018-03-27T07:48:56.020Z,46.27
2018-03-27T07:51:24.191Z,45.77
2018-03-27T07:53:51.884Z,47.03
2018-03-27T07:56:19.505Z,43.90
2018-03-27T07:58:47.168Z,44.53
2018-03-27T08:01:14.839Z,44.87
2018-03-27T08:03:42.509Z,46.03
2018-03-27T08:06:10.140Z,47.07
2018-03-27T08:08:38.656Z,47.63
2018-03-27T08:11:06.444Z,47.70
2018-03-27T08:13:34.119Z,50.73
2018-03-27T08:16:01.766Z,48.27
2018-03-27T08:18:29.443Z,48.30
2018-03-27T08:20:57.064Z,47.90
2018-03-27T08:23:24.694Z,48.37
2018-03-27T08:25:52.519Z,47.20
2018-03-27T08:28:20.976Z,46.10
2018-03-27T08:30:48.667Z,48.60
2018-03-27T08:33:16.348Z,48.10
2018-03-27T08:35:45.648Z,45.20
2018-03-27T08:38:16.509Z,46.63
2018-03-27T08:40:44.825Z,46.63
2018-03-27T08:43:13.934Z,47.57
2018-03-27T08:45:42.032Z,50.43
2018-03-27T08:48:11.792Z,49.13
2018-03-27T08:50:41.258Z,49.03
2018-03-27T08:53:09.745Z,48.87
2018-03-27T08:55:37.425Z,49.37
2018-03-27T08:58:05.111Z,48.43
2018-03-27T09:00:32.903Z,48.20
2018-03-27T09:03:00.553Z,47.97
2018-03-27T09:05:28.253Z,47.70
2018-03-27T09:07:55.976Z,46.90
2018-03-27T09:10:23.731Z,48.03
2018-03-27T09:12:51.438Z,48.57
2018-03-27T09:17:50.331Z,46.70
2018-03-27T09:20:18.093Z,48.10
2018-03-27T09:22:45.742Z,49.30
2018-03-27T09:25:13.444Z,46.87
2018-03-27T09:27:41.120Z,48.47
2018-03-27T09:30:08.791Z,49.20
2018-03-27T09:32:37.605Z,50.03
2018-03-27T09:35:05.258Z,47.30
2018-03-27T09:37:33.661Z,46.77
2018-03-27T09:40:01.295Z,46.53
2018-03-27T09:42:29.820Z,39.83
2018-03-27T09:44:57.513Z,41.67
2018-03-27T09:47:25.167Z,40.27
2018-03-27T09:49:52.856Z,41.93
2018-03-27T09:52:22.267Z,41.97
2018-03-27T09:54:50.703Z,36.93
2018-03-27T09:57:18.474Z,38.83
2018-03-27T09:59:47.198Z,39.43
2018-03-27T10:02:18.385Z,36.63
2018-03-27T10:04:48.097Z,36.37
2018-03-27T10:07:17.512Z,35.60
2018-03-27T10:09:45.196Z,37.07
2018-03-27T10:12:12.853Z,35.57
2018-03-27T10:14:42.201Z,34.27
2018-03-27T10:17:09.835Z,34.70
2018-03-27T10:19:38.303Z,32.90
2018-03-27T10:22:06.696Z,25.53
2018-03-27T10:24:35.132Z,25.50
2018-03-27T10:27:02.815Z,21.63
2018-03-27T10:29:30.461Z,21.23
2018-03-27T10:31:58.114Z,20.80
2018-03-27T10:34:26.658Z,21.13
2018-03-27T10:36:54.313Z,21.17
2018-03-27T10:39:21.937Z,17.20
2018-03-27T10:41:49.983Z,18.07
2018-03-27T10:44:17.764Z,19.70
2018-03-27T10:46:45.363Z,18.37
2018-03-27T10:49:13.909Z,18.40
2018-03-27T10:51:43.870Z,18.30
2018-03-27T10:54:11.504Z,18.67
2018-03-27T10:56:41.025Z,19.40
2018-03-27T10:59:09.165Z,18.87
2018-03-27T11:01:37.623Z,17.90
2018-03-27T11:04:06.037Z,18.17
2018-03-27T11:06:34.483Z,18.33
2018-03-27T11:09:03.187Z,17.67
2018-03-27T11:11:30.853Z,16.07
2018-03-27T11:13:59.758Z,15.77
2018-03-27T11:16:27.489Z,14.43
2018-03-27T11:18:55.182Z,15.73
2018-03-27T11:21:22.847Z,16.23
2018-03-27T11:23:50.493Z,16.70
2018-03-27T11:26:18.909Z,14.63
2018-03-27T11:28:46.560Z,16.43
2018-03-27T11:31:14.190Z,16.00
2018-03-27T11:33:42.669Z,15.60
2018-03-27T11:36:11.106Z,16.27
2018-03-27T11:38:38.744Z,16.10
2018-03-27T11:41:06.429Z,16.37
2018-03-27T11:43:34.075Z,20.77
2018-03-27T11:46:01.785Z,16.57
2018-03-27T11:48:30.241Z,17.53
2018-03-27T11:50:58.751Z,16.87
2018-03-27T11:53:27.238Z,16.60
2018-03-27T11:55:55.800Z,16.30
2018-03-27T11:58:23.541Z,16.73
2018-03-27T12:00:51.234Z,16.10
2018-03-27T12:03:18.935Z,16.70
2018-03-27T12:05:47.089Z,16.53
2018-03-27T12:08:14.713Z,16.10
2018-03-27T12:10:43.836Z,16.33
2018-03-27T12:13:13.615Z,16.40
2018-03-27T12:15:42.702Z,15.70
2018-03-27T12:18:10.388Z,14.17
2018-03-27T12:20:38.165Z,14.27
2018-03-27T12:23:06.677Z,15.07
2018-03-27T12:25:35.743Z,13.70
2018-03-27T12:28:04.289Z,13.47
2018-03-27T12:30:32.091Z,13.93
2018-03-27T12:33:00.505Z,14.40
2018-03-27T12:35:29.593Z,15.00
2018-03-27T12:37:58.883Z,17.03
2018-03-27T12:40:27.522Z,15.87
2018-03-27T12:42:56.688Z,17.70
2018-03-27T12:45:24.381Z,17.50
2018-03-27T12:47:52.292Z,17.57
2018-03-27T12:50:20.746Z,16.73
2018-03-27T12:52:49.140Z,16.53
2018-03-27T12:55:17.592Z,16.60
2018-03-27T12:57:45.282Z,15.67
2018-03-27T13:00:12.974Z,17.40
2018-03-27T13:02:40.701Z,17.37
2018-03-27T13:05:09.174Z,16.13
2018-03-27T13:07:37.667Z,17.40
2018-03-27T13:10:06.092Z,15.37
2018-03-27T13:12:33.735Z,18.67
2018-03-27T13:15:01.466Z,17.63
2018-03-27T13:17:30.353Z,19.33
2018-03-27T13:19:57.964Z,19.13
2018-03-27T13:22:26.986Z,19.93
2018-03-27T13:24:54.716Z,19.67
2018-03-27T13:27:23.609Z,19.53
2018-03-27T13:29:52.052Z,19.10
2018-03-27T13:32:20.466Z,18.77
2018-03-27T13:34:48.085Z,17.67
2018-03-27T13:37:15.784Z,18.97
2018-03-27T13:39:43.480Z,18.87
2018-03-27T13:42:11.170Z,20.13
2018-03-27T13:44:40.106Z,19.47
2018-03-27T13:47:07.806Z,20.60
2018-03-27T13:49:36.836Z,18.77
2018-03-27T13:52:04.644Z,18.70
2018-03-27T13:54:32.302Z,19.80
2018-03-27T13:56:59.973Z,21.57
2018-03-27T13:59:27.669Z,23.17
2018-03-27T14:01:55.302Z,20.47
2018-03-27T14:04:22.985Z,19.70
2018-03-27T14:06:50.678Z,21.63
2018-03-27T14:09:18.389Z,20.30
2018-03-27T14:11:46.019Z,21.77
2018-03-27T14:14:14.421Z,21.13
2018-03-27T14:16:42.107Z,20.07
2018-03-27T14:19:09.820Z,20.13
2018-03-27T14:21:38.261Z,20.13
2018-03-27T14:24:05.879Z,21.10
2018-03-27T14:26:33.574Z,21.17
2018-03-27T14:29:01.351Z,20.53
2018-03-27T14:31:29.096Z,20.63
2018-03-27T14:33:56.793Z,20.53
2018-03-27T14:36:24.456Z,20.50
2018-03-27T14:38:52.137Z,20.47
2018-03-27T14:41:19.793Z,20.37
2018-03-27T14:43:48.260Z,21.23
2018-03-27T14:46:15.925Z,20.90
2018-03-27T14:48:43.640Z,20.87
2018-03-27T14:51:11.306Z,20.27
2018-03-27T14:53:38.940Z,18.63
2018-03-27T14:56:07.262Z,20.23
2018-03-27T14:58:34.943Z,20.03
2018-03-27T15:01:02.764Z,19.03
2018-03-27T15:03:30.419Z,20.40
2018-03-27T15:05:58.892Z,20.30
2018-03-27T15:08:27.582Z,20.33
2018-03-27T15:10:55.671Z,21.37
2018-03-27T15:13:23.318Z,19.67
2018-03-27T15:15:51.396Z,21.03
2018-03-27T15:18:19.056Z,21.10
2018-03-27T15:20:46.752Z,20.90
2018-03-27T15:23:14.500Z,20.23
2018-03-27T15:25:42.193Z,21.07
2018-03-27T15:28:09.923Z,21.13
2018-03-27T15:30:37.732Z,20.57
2018-03-27T15:33:06.181Z,20.17
2018-03-27T15:35:33.905Z,19.87
2018-03-27T15:38:01.519Z,20.23
2018-03-27T15:40:29.277Z,20.47
2018-03-27T15:42:57.024Z,20.17
2018-03-27T15:45:26.505Z,21.23
2018-03-27T15:47:54.282Z,20.13
2018-03-27T15:50:21.928Z,20.07
2018-03-27T15:52:49.586Z,19.43
2018-03-27T15:55:17.221Z,20.80
2018-03-27T15:57:45.686Z,21.40
2018-03-27T16:00:13.992Z,20.03
2018-03-27T16:02:41.664Z,21.00
2018-03-27T16:05:09.286Z,20.27
2018-03-27T16:07:37.680Z,18.97
2018-03-27T16:10:06.092Z,18.67
2018-03-27T16:12:33.743Z,19.50
2018-03-27T16:15:01.826Z,19.83
2018-03-27T16:17:29.911Z,19.77
2018-03-27T16:19:58.997Z,20.10
2018-03-27T16:22:26.646Z,20.67
2018-03-27T16:24:55.992Z,22.07
2018-03-27T16:27:24.202Z,23.47
2018-03-27T16:29:51.944Z,21.53
2018-03-27T16:32:20.384Z,22.60
2018-03-27T16:34:49.093Z,21.73
2018-03-27T16:37:16.727Z,23.23
2018-03-27T16:39:45.641Z,22.73
2018-03-27T16:42:13.990Z,24.40
2018-03-27T16:44:41.669Z,23.43
2018-03-27T16:47:09.330Z,22.53
2018-03-27T16:49:36.986Z,22.80
2018-03-27T16:52:04.637Z,23.67
2018-03-27T16:54:32.353Z,22.50
2018-03-27T16:57:00.831Z,23.00
2018-03-27T16:59:29.369Z,22.23
2018-03-27T17:01:57.011Z,22.03
2018-03-27T17:04:24.767Z,21.83
2018-03-27T17:06:52.423Z,22.33
2018-03-27T17:09:21.836Z,22.33
2018-03-27T17:11:50.321Z,22.77
2018-03-27T17:14:17.986Z,23.23
2018-03-27T17:16:45.652Z,22.60
2018-03-27T17:19:14.555Z,23.10
2018-03-27T17:21:42.218Z,23.00
2018-03-27T17:24:10.917Z,24.00
2018-03-27T17:26:38.639Z,23.87
2018-03-27T17:29:07.806Z,22.50
2018-03-27T17:31:36.302Z,22.07
2018-03-27T17:34:04.107Z,25.03
2018-03-27T17:36:31.786Z,24.03
2018-03-27T17:38:59.801Z,25.27
2018-03-27T17:41:27.580Z,21.93
2018-03-27T17:43:55.742Z,23.43
2018-03-27T17:46:23.515Z,24.00
2018-03-27T17:48:51.678Z,24.13
2018-03-27T17:51:19.326Z,24.47
2018-03-27T17:53:47.220Z,23.97
2018-03-27T17:56:14.863Z,24.37
2018-03-27T17:58:42.527Z,25.17
2018-03-27T18:01:10.181Z,24.60
2018-03-27T18:03:38.547Z,23.27
2018-03-27T18:06:06.237Z,22.80
2018-03-27T18:08:33.888Z,25.17
2018-03-27T18:11:03.025Z,25.43
2018-03-27T18:13:30.718Z,24.37
2018-03-27T18:15:59.531Z,24.60
2018-03-27T18:18:27.949Z,24.97
2018-03-27T18:20:55.635Z,24.27
2018-03-27T18:23:23.277Z,25.07
2018-03-27T18:25:50.990Z,25.47
2018-03-27T18:28:19.585Z,25.63
2018-03-27T18:30:48.115Z,27.07
2018-03-27T18:33:15.777Z,24.93
2018-03-27T18:35:43.491Z,25.90
2018-03-27T18:38:12.443Z,26.33
2018-03-27T18:40:40.169Z,26.30
2018-03-27T18:43:08.665Z,26.40
2018-03-27T18:45:36.390Z,25.77
2018-03-27T18:48:04.059Z,25.77
2018-03-27T18:50:32.081Z,27.40
2018-03-27T18:52:59.726Z,27.53
2018-03-27T18:55:27.369Z,26.33
2018-03-27T18:57:55.078Z,28.00
2018-03-27T19:00:23.491Z,28.27
2018-03-27T19:02:51.282Z,28.10
2018-03-27T19:05:19.057Z,26.90
2018-03-27T19:07:46.867Z,31.67
2018-03-27T19:10:14.577Z,29.60
2018-03-27T19:12:43.017Z,28.87
2018-03-27T19:15:10.691Z,29.10
2018-03-27T19:17:38.413Z,29.27
2018-03-27T19:20:06.080Z,29.43
2018-03-27T19:22:34.530Z,29.23
2018-03-27T19:25:02.400Z,28.47
2018-03-27T19:27:30.117Z,28.77
2018-03-27T19:29:57.828Z,28.07
2018-03-27T19:32:25.502Z,29.23
2018-03-27T19:34:53.256Z,30.20
2018-03-27T19:37:20.928Z,29.20
2018-03-27T19:39:48.621Z,29.87
2018-03-27T19:42:16.301Z,29.07
2018-03-27T19:44:43.980Z,32.73
2018-03-27T19:47:12.478Z,29.77
2018-03-27T19:49:40.211Z,29.90
2018-03-27T19:52:07.968Z,32.67
2018-03-27T19:54:35.704Z,31.57
2018-03-27T19:57:03.392Z,31.17
2018-03-27T19:59:31.156Z,32.13
2018-03-27T20:01:58.866Z,30.47
2018-03-27T20:04:26.684Z,33.03
2018-03-27T20:06:54.413Z,31.20
2018-03-27T20:09:22.880Z,31.67
2018-03-27T20:11:50.594Z,31.70
2018-03-27T20:14:18.291Z,32.90
2018-03-27T20:16:46.662Z,33.63
2018-03-27T20:19:14.482Z,34.50
2018-03-27T20:21:42.210Z,30.53
2018-03-27T20:24:09.887Z,34.00
2018-03-27T20:26:38.516Z,31.77
2018-03-27T20:29:06.235Z,33.17
2018-03-27T20:31:34.710Z,33.10
2018-03-27T20:34:02.444Z,33.23
2018-03-27T20:36:30.792Z,33.40
2018-03-27T20:38:59.290Z,32.03
2018-03-27T20:41:27.080Z,32.40
2018-03-27T20:43:54.800Z,35.37
2018-03-27T20:46:22.464Z,34.37
2018-03-27T20:48:50.150Z,34.80
2018-03-27T20:51:17.867Z,33.83
2018-03-27T20:53:46.301Z,34.10
2018-03-27T20:56:13.928Z,34.67
2018-03-27T20:58:41.844Z,34.63
2018-03-27T21:01:09.465Z,33.97
2018-03-27T21:03:37.189Z,35.80
2018-03-27T21:06:05.634Z,33.97
2018-03-27T21:08:33.590Z,33.87
2018-03-27T21:11:01.487Z,34.93
2018-03-27T21:13:29.107Z,35.10
2018-03-27T21:15:56.872Z,33.97
2018-03-27T21:18:24.527Z,33.57
2018-03-27T21:20:52.209Z,32.93
2018-03-27T21:23:19.873Z,33.33
2018-03-27T21:25:47.570Z,34.50
2018-03-27T21:28:16.101Z,34.57
2018-03-27T21:30:43.787Z,34.60
2018-03-27T21:33:11.497Z,33.37
2018-03-27T21:35:39.198Z,35.53
2018-03-27T21:38:06.858Z,33.00
2018-03-27T21:40:34.561Z,34.27
2018-03-27T21:43:03.021Z,33.87
2018-03-27T21:45:30.679Z,35.77
2018-03-27T21:47:58.332Z,33.30
2018-03-27T21:50:26.011Z,32.60
2018-03-27T21:52:54.182Z,33.10
2018-03-27T21:55:21.856Z,34.10
2018-03-27T21:57:51.445Z,34.57
2018-03-27T22:00:19.113Z,33.10
2018-03-27T22:02:48.474Z,33.93
2018-03-27T22:05:16.168Z,34.73
2018-03-27T22:07:43.840Z,33.23
2018-03-27T22:10:11.499Z,34.23
2018-03-27T22:12:39.110Z,33.97
2018-03-27T22:15:06.771Z,33.40
2018-03-27T22:17:34.430Z,34.63
2018-03-27T22:20:02.073Z,36.00
2018-03-27T22:22:29.755Z,33.87
2018-03-27T22:24:57.431Z,34.57
2018-03-27T22:27:25.495Z,34.80
2018-03-27T22:29:53.133Z,34.43
2018-03-27T22:32:20.851Z,34.23
2018-03-27T22:34:48.530Z,36.07
2018-03-27T22:37:16.231Z,34.93
2018-03-27T22:39:43.860Z,32.80
2018-03-27T22:42:12.363Z,32.50
2018-03-27T22:44:40.716Z,35.73
2018-03-27T22:47:09.134Z,32.73
2018-03-27T22:49:36.768Z,33.60
2018-03-27T22:52:05.196Z,32.33
2018-03-27T22:54:32.839Z,33.43
2018-03-27T22:57:00.453Z,32.63
2018-03-27T22:59:28.908Z,33.23
2018-03-27T23:01:57.967Z,32.93
2018-03-27T23:04:25.691Z,33.10
2018-03-27T23:06:54.083Z,33.13
2018-03-27T23:09:22.809Z,33.90
2018-03-27T23:11:50.434Z,32.80
2018-03-27T23:14:18.861Z,33.13
2018-03-27T23:16:46.505Z,32.17
2018-03-27T23:19:14.155Z,32.23
2018-03-27T23:21:41.833Z,32.33
2018-03-27T23:24:09.481Z,31.63
2018-03-27T23:26:37.244Z,31.73
2018-03-27T23:29:04.913Z,31.50
2018-03-27T23:31:33.422Z,30.93
2018-03-27T23:34:01.028Z,30.93
2018-03-27T23:36:28.721Z,32.13
2018-03-27T23:38:56.350Z,31.00
2018-03-27T23:41:24.041Z,32.30
2018-03-27T23:43:51.714Z,31.40
2018-03-27T23:46:19.409Z,33.57
2018-03-27T23:48:47.090Z,32.17
2018-03-27T23:51:15.551Z,30.53
2018-03-27T23:53:43.179Z,32.47
2018-03-27T23:56:12.333Z,31.83
2018-03-27T23:58:41.744Z,33.47
